createdAt,value
2019-05-12T00:04:22.837Z,100553.11
2019-05-12T00:09:28.251Z,100561.56
2019-05-12T00:14:32.455Z,100561.56
2019-05-12T00:19:37.782Z,100571.98
2019-05-12T00:24:41.983Z,100578.72
2019-05-12T00:29:48.385Z,100582.76
2019-05-12T00:34:51.793Z,100571.31
2019-05-12T00:39:58.190Z,100592.31
2019-05-12T00:45:01.589Z,100609.05
2019-05-12T00:50:08.029Z,100612.69
2019-05-12T00:55:12.750Z,100631.55
2019-05-12T01:00:17.899Z,100631.55
2019-05-12T01:05:22.066Z,100638.59
2019-05-12T01:10:28.299Z,100638.59
2019-05-12T01:15:32.114Z,100642.26
2019-05-12T01:20:38.555Z,100653.16
2019-05-12T01:25:42.084Z,100635.47
2019-05-12T01:30:47.940Z,100657.87
2019-05-12T01:35:51.858Z,100656.14
2019-05-12T01:40:58.213Z,100668.87
2019-05-12T01:46:01.624Z,100675.68
2019-05-12T01:51:05.722Z,100687.81
2019-05-12T01:56:09.867Z,100679.97
2019-05-12T02:01:13.955Z,100701.98
2019-05-12T02:06:18.488Z,100684.30
2019-05-12T02:11:34.920Z,100699.95
2019-05-12T02:16:38.987Z,100686.31
2019-05-12T02:21:43.111Z,100717.28
2019-05-12T02:26:48.682Z,100701.34
2019-05-12T02:31:52.906Z,100731.83
2019-05-12T02:36:56.948Z,100722.97
2019-05-12T02:42:04.920Z,100738.29
2019-05-12T02:47:07.142Z,100730.78
2019-05-12T02:52:11.547Z,100761.75
2019-05-12T02:57:15.909Z,100775.70
2019-05-12T03:02:24.411Z,100763.77
2019-05-12T03:07:29.182Z,100773.98
2019-05-12T03:12:34.478Z,100773.98
2019-05-12T03:17:38.685Z,100760.91
2019-05-12T03:22:44.774Z,100767.64
2019-05-12T03:27:48.551Z,100784.77
2019-05-12T03:32:57.509Z,100786.59
2019-05-12T03:37:58.321Z,100799.76
2019-05-12T03:43:05.071Z,100785.61
2019-05-12T03:48:08.174Z,100785.61
2019-05-12T03:53:15.123Z,100818.34
2019-05-12T03:58:18.047Z,100835.16
2019-05-12T04:03:24.626Z,100835.16
2019-05-12T04:08:27.883Z,100866.62
2019-05-12T04:13:34.188Z,100879.77
2019-05-12T04:18:37.609Z,100895.00
2019-05-12T04:23:44.353Z,100887.18
2019-05-12T04:28:47.363Z,100910.37
2019-05-12T04:33:54.484Z,100921.24
2019-05-12T04:38:57.131Z,100930.39
2019-05-12T04:44:01.158Z,100947.80
2019-05-12T04:49:05.731Z,100971.66
2019-05-12T04:54:09.916Z,100975.76
2019-05-12T04:59:15.784Z,100975.76
2019-05-12T05:04:19.667Z,100989.64
2019-05-12T05:09:24.913Z,100992.63
2019-05-12T05:14:29.023Z,100982.30
2019-05-12T05:19:33.759Z,101019.30
2019-05-12T05:24:40.205Z,101021.31
2019-05-12T05:29:44.197Z,101034.23
2019-05-12T05:34:53.689Z,101042.12
2019-05-12T05:39:54.086Z,101045.13
2019-05-12T05:44:58.064Z,101045.13
2019-05-12T05:50:04.624Z,101062.77
2019-05-12T05:55:14.767Z,101062.77
2019-05-12T06:00:22.872Z,101088.59
2019-05-12T06:05:25.262Z,101101.97
2019-05-12T06:10:34.824Z,101097.80
2019-05-12T06:15:35.637Z,101119.70
2019-05-12T06:20:38.285Z,101129.04
2019-05-12T06:25:49.088Z,101117.75
2019-05-12T06:30:50.260Z,101145.34
2019-05-12T06:35:54.398Z,101134.43
2019-05-12T06:40:58.532Z,101148.25
2019-05-12T06:46:03.645Z,101137.12
2019-05-12T06:51:09.118Z,101155.92
2019-05-12T06:56:15.483Z,101159.04
2019-05-12T07:01:19.890Z,101148.64
2019-05-12T07:06:24.790Z,101183.20
2019-05-12T07:11:41.666Z,101183.20
2019-05-12T07:16:34.828Z,101168.52
2019-05-12T07:21:38.917Z,101183.85
2019-05-12T07:26:44.251Z,101188.47
2019-05-12T07:31:49.086Z,101191.27
2019-05-12T07:36:55.817Z,101191.27
2019-05-12T07:42:03.629Z,101218.25
2019-05-12T07:47:07.803Z,101218.25
2019-05-12T07:52:13.783Z,101196.64
2019-05-12T07:57:17.897Z,101222.89
2019-05-12T08:02:25.503Z,101222.89
2019-05-12T08:07:29.886Z,101223.08
2019-05-12T08:12:34.049Z,101227.55
2019-05-12T08:17:38.184Z,101227.55
2019-05-12T08:22:43.826Z,101239.67
2019-05-12T08:27:51.334Z,101235.48
2019-05-12T08:33:02.064Z,101235.48
2019-05-12T08:37:59.729Z,101254.78
2019-05-12T08:43:08.016Z,101267.70
2019-05-12T08:48:17.119Z,101267.70
2019-05-12T08:53:21.039Z,101270.73
2019-05-12T08:58:31.358Z,101272.13
2019-05-12T09:03:30.502Z,101287.45
2019-05-12T09:08:35.941Z,101283.66
2019-05-12T09:13:40.232Z,101275.31
2019-05-12T09:18:44.410Z,101285.84
2019-05-12T09:23:48.423Z,101285.84
2019-05-12T09:28:54.277Z,101288.63
2019-05-12T09:34:03.484Z,101287.91
2019-05-12T09:39:06.220Z,101300.44
2019-05-12T09:44:10.224Z,101300.44
2019-05-12T09:49:14.365Z,101307.30
2019-05-12T09:54:18.653Z,101316.97
2019-05-12T09:59:25.622Z,101323.70
2019-05-12T10:04:32.952Z,101318.26
2019-05-12T10:09:36.658Z,101318.26
2019-05-12T10:14:45.672Z,101326.07
2019-05-12T10:19:48.396Z,101333.20
2019-05-12T10:24:58.317Z,101333.20
2019-05-12T10:30:05.573Z,101329.03
2019-05-12T10:35:04.526Z,101335.37
2019-05-12T10:40:10.022Z,101332.52
2019-05-12T10:45:16.944Z,101336.47
2019-05-12T10:50:23.265Z,101337.72
2019-05-12T10:55:26.545Z,101333.34
2019-05-12T11:00:30.881Z,101339.36
2019-05-12T11:05:35.054Z,101340.91
2019-05-12T11:10:39.129Z,101340.91
2019-05-12T11:15:46.169Z,101345.04
2019-05-12T11:20:49.129Z,101343.93
2019-05-12T11:25:53.437Z,101343.75
2019-05-12T11:30:57.686Z,101347.31
2019-05-12T11:36:01.734Z,101336.56
2019-05-12T11:41:09.981Z,101336.56
2019-05-12T11:46:11.755Z,101363.09
2019-05-12T11:51:15.809Z,101357.22
2019-05-12T11:56:19.883Z,101353.03
2019-05-12T12:01:25.533Z,101356.50
2019-05-12T12:06:29.531Z,101367.80
2019-05-12T12:11:34.266Z,101369.98
2019-05-12T12:16:41.993Z,101380.67
2019-05-12T12:21:48.007Z,101380.67
2019-05-12T12:26:50.128Z,101386.96
2019-05-12T12:31:54.956Z,101397.27
2019-05-12T12:36:58.950Z,101397.27
2019-05-12T12:42:04.394Z,101412.30
2019-05-12T12:47:08.520Z,101413.50
2019-05-12T12:52:13.740Z,101402.63
2019-05-12T12:57:19.208Z,101400.63
2019-05-12T13:02:24.703Z,101407.95
2019-05-12T13:07:29.026Z,101421.33
2019-05-12T13:12:35.718Z,101416.23
2019-05-12T13:17:41.819Z,101409.82
2019-05-12T13:22:44.658Z,101416.41
2019-05-12T13:27:48.655Z,101420.26
2019-05-12T13:32:53.870Z,101430.37
2019-05-12T13:38:00.470Z,101398.67
2019-05-12T13:43:03.950Z,101424.34
2019-05-12T13:48:09.694Z,101424.34
2019-05-12T13:53:14.096Z,101412.94
2019-05-12T13:58:18.452Z,101431.86
2019-05-12T14:03:22.468Z,101435.85
2019-05-12T14:08:26.540Z,101436.47
2019-05-12T14:13:30.614Z,101445.05
2019-05-12T14:18:36.410Z,101448.77
2019-05-12T14:23:40.504Z,101448.67
2019-05-12T14:28:49.322Z,101434.03
2019-05-12T14:33:50.389Z,101430.80
2019-05-12T14:38:54.394Z,101435.72
2019-05-12T14:44:01.697Z,101441.00
2019-05-12T14:49:04.236Z,101447.08
2019-05-12T14:54:08.317Z,101452.80
2019-05-12T14:59:14.436Z,101452.06
2019-05-12T15:04:19.466Z,101455.30
2019-05-12T15:09:24.659Z,101452.12
2019-05-12T15:14:32.532Z,101452.12
2019-05-12T15:19:34.701Z,101457.22
2019-05-12T15:24:38.689Z,101457.22
2019-05-12T15:29:42.827Z,101460.98
2019-05-12T15:34:46.939Z,101466.30
2019-05-12T15:39:53.332Z,101475.06
2019-05-12T15:44:56.693Z,101475.06
2019-05-12T15:50:00.714Z,101485.13
2019-05-12T15:55:05.150Z,101478.22
2019-05-12T16:00:09.742Z,101478.86
2019-05-12T16:05:14.819Z,101492.11
2019-05-12T16:10:20.193Z,101495.41
2019-05-12T16:15:24.268Z,101495.41
2019-05-12T16:20:28.289Z,101490.02
2019-05-12T16:25:34.161Z,101476.16
2019-05-12T16:30:38.264Z,101498.66
2019-05-12T16:35:44.181Z,101483.81
2019-05-12T16:40:49.697Z,101484.36
2019-05-12T16:45:53.929Z,101497.59
2019-05-12T16:50:57.935Z,101497.59
2019-05-12T16:56:04.235Z,101495.38
2019-05-12T17:01:07.881Z,101523.61
2019-05-12T17:06:13.712Z,101517.95
2019-05-12T17:11:26.452Z,101510.23
2019-05-12T17:16:23.606Z,101522.03
2019-05-12T17:21:27.626Z,101523.78
2019-05-12T17:26:33.445Z,101527.11
2019-05-12T17:31:37.511Z,101531.88
2019-05-12T17:36:41.524Z,101521.42
2019-05-12T17:41:46.628Z,101543.83
2019-05-12T17:46:50.649Z,101543.83
2019-05-12T17:51:57.209Z,101556.27
2019-05-12T17:57:00.539Z,101563.69
2019-05-12T18:02:05.709Z,101570.67
2019-05-12T18:07:14.344Z,101576.99
2019-05-12T18:12:16.253Z,101580.66
2019-05-12T18:17:20.432Z,101580.66
2019-05-12T18:22:24.432Z,101583.72
2019-05-12T18:27:28.569Z,101598.10
2019-05-12T18:32:32.563Z,101612.89
2019-05-12T18:37:36.567Z,101617.95
2019-05-12T18:42:40.633Z,101617.95
2019-05-12T18:47:44.672Z,101646.68
2019-05-12T18:52:48.681Z,101651.00
2019-05-12T18:57:54.558Z,101651.14
2019-05-12T19:02:59.583Z,101657.02
2019-05-12T19:08:04.349Z,101657.02
2019-05-12T19:13:08.457Z,101685.83
2019-05-12T19:18:17.577Z,101681.28
2019-05-12T19:23:18.191Z,101709.73
2019-05-12T19:28:23.782Z,101714.64
2019-05-12T19:33:28.111Z,101724.17
2019-05-12T19:38:34.418Z,101724.17
2019-05-12T19:43:39.171Z,101738.59
2019-05-12T19:48:49.608Z,101739.94
2019-05-12T19:53:49.393Z,101734.16
2019-05-12T19:58:54.011Z,101734.16
2019-05-12T20:03:58.271Z,101735.51
2019-05-12T20:09:06.644Z,101741.85
2019-05-12T20:14:09.960Z,101752.64
2019-05-12T20:19:14.040Z,101760.09
2019-05-12T20:24:18.120Z,101771.56
2019-05-12T20:29:26.600Z,101780.06
2019-05-12T20:34:27.912Z,101782.20
2019-05-12T20:39:31.933Z,101786.25
2019-05-12T20:44:36.015Z,101776.72
2019-05-12T20:49:45.078Z,101776.72
2019-05-12T20:54:49.253Z,101792.91
2019-05-12T20:59:51.561Z,101789.82
2019-05-12T21:05:00.878Z,101805.06
2019-05-12T21:10:03.931Z,101801.97
2019-05-12T21:15:16.465Z,101804.19
2019-05-12T21:20:16.638Z,101803.31
2019-05-12T21:25:19.219Z,101810.94
2019-05-12T21:30:24.720Z,101812.28
2019-05-12T21:35:32.094Z,101810.02
2019-05-12T21:40:35.190Z,101819.03
2019-05-12T21:45:39.296Z,101819.03
2019-05-12T21:50:44.295Z,101815.47
2019-05-12T21:55:48.485Z,101819.05
2019-05-12T22:01:03.907Z,101823.57
2019-05-12T22:06:14.800Z,101837.06
2019-05-12T22:11:11.596Z,101841.59
2019-05-12T22:16:15.055Z,101844.20
2019-05-12T22:21:20.118Z,101847.63
2019-05-12T22:26:24.235Z,101847.63
2019-05-12T22:31:28.367Z,101848.81
2019-05-12T22:36:33.660Z,101841.59
2019-05-12T22:41:41.453Z,101849.21
2019-05-12T22:46:43.689Z,101856.92
2019-05-12T22:51:47.716Z,101851.44
2019-05-12T22:56:55.359Z,101855.95
2019-05-12T23:01:57.616Z,101872.64
2019-05-12T23:07:01.721Z,101878.03
2019-05-12T23:12:09.863Z,101884.39
2019-05-12T23:17:13.710Z,101891.05
2019-05-12T23:22:17.671Z,101896.06
2019-05-12T23:27:25.252Z,101906.38
2019-05-12T23:32:27.499Z,101908.30
2019-05-12T23:37:38.413Z,101909.64
2019-05-12T23:42:37.245Z,101909.64
2019-05-12T23:47:43.819Z,101919.17
2019-05-12T23:52:47.102Z,101919.17
2019-05-12T23:57:53.550Z,101910.65
